RYR34VA LICA-LIRP
Flight info
| Callsign | RYR34VA |
|---|---|
| Flight time | 1h 18m |
| Altitude | 36000 |
| Route | ARBUM M620 EVINO DCT PNZ DCT GILIO M729 ELB |
| Aircraft | B738/M-SDE3/L |
Departure
| Time | 2026-04-21 08:06 |
|---|---|
| Airport | Lamezia Terme Sant'Eufemia International Airport (LICA) |
Arrival
| Time | 2026-04-21 09:25 |
|---|---|
| Airport | Pisa International Airport (LIRP) |
| Time | Latitude | Longitude | Altitude | Speed | Heading |
|---|---|---|---|---|---|
| 2026-04-21 06:59 | 38.90860 | 16.24517 | 44 ft | 0 kts | 46° |
| 2026-04-21 08:01 | 38.90862 | 16.24526 | 42 ft | 3 kts | 74° |
| 2026-04-21 08:01 | 38.90836 | 16.24552 | 44 ft | 8 kts | 171° |
| 2026-04-21 08:02 | 38.90709 | 16.24721 | 42 ft | 20 kts | 86° |
| 2026-04-21 08:02 | 38.90684 | 16.24920 | 44 ft | 26 kts | 99° |
| 2026-04-21 08:02 | 38.90659 | 16.25169 | 44 ft | 29 kts | 97° |
| 2026-04-21 08:02 | 38.90600 | 16.25417 | 44 ft | 29 kts | 127° |
| 2026-04-21 08:03 | 38.90457 | 16.25576 | 44 ft | 26 kts | 143° |
| 2026-04-21 08:03 | 38.90364 | 16.25755 | 41 ft | 24 kts | 99° |
| 2026-04-21 08:03 | 38.90336 | 16.25977 | 41 ft | 26 kts | 99° |
| 2026-04-21 08:03 | 38.90380 | 16.26178 | 44 ft | 23 kts | 53° |
| 2026-04-21 08:04 | 38.90321 | 16.26271 | 45 ft | 18 kts | 215° |
| 2026-04-21 08:04 | 38.90317 | 16.26141 | 45 ft | 15 kts | 278° |
| 2026-04-21 08:04 | 38.90331 | 16.26018 | 44 ft | 9 kts | 278° |
| 2026-04-21 08:04 | 38.90332 | 16.26012 | 44 ft | 0 kts | 278° |
| 2026-04-21 08:05 | 38.90332 | 16.26008 | 44 ft | 4 kts | 278° |
| 2026-04-21 08:05 | 38.90372 | 16.25653 | 43 ft | 84 kts | 279° |
| 2026-04-21 08:05 | 38.90500 | 16.24557 | 44 ft | 162 kts | 278° |
| 2026-04-21 08:06 | 38.90700 | 16.22885 | 316 ft | 203 kts | 278° |
| 2026-04-21 08:06 | 38.90927 | 16.21143 | 1556 ft | 191 kts | 281° |
| 2026-04-21 08:06 | 38.91186 | 16.19594 | 2986 ft | 164 kts | 282° |
| 2026-04-21 08:06 | 38.91378 | 16.18149 | 3828 ft | 172 kts | 279° |
| 2026-04-21 08:07 | 38.91572 | 16.16534 | 4352 ft | 192 kts | 279° |
| 2026-04-21 08:07 | 38.91783 | 16.14784 | 4865 ft | 205 kts | 279° |
| 2026-04-21 08:07 | 38.92005 | 16.12880 | 5182 ft | 230 kts | 278° |
| 2026-04-21 08:07 | 38.92229 | 16.10714 | 5553 ft | 255 kts | 278° |
| 2026-04-21 08:08 | 38.92470 | 16.08412 | 6332 ft | 264 kts | 278° |
| 2026-04-21 08:08 | 38.92729 | 16.06064 | 7212 ft | 267 kts | 278° |
| 2026-04-21 08:08 | 38.93000 | 16.03700 | 8119 ft | 269 kts | 278° |
| 2026-04-21 08:08 | 38.93279 | 16.01304 | 9009 ft | 273 kts | 279° |
| 2026-04-21 08:09 | 38.93566 | 15.98853 | 9923 ft | 276 kts | 279° |
| 2026-04-21 08:09 | 38.94092 | 15.96497 | 10518 ft | 289 kts | 300° |
| 2026-04-21 08:09 | 38.95552 | 15.94592 | 10741 ft | 316 kts | 329° |
| 2026-04-21 08:09 | 38.97638 | 15.93543 | 11362 ft | 327 kts | 339° |
| 2026-04-21 08:10 | 38.99819 | 15.92619 | 12174 ft | 331 kts | 340° |
| 2026-04-21 08:10 | 39.02011 | 15.91695 | 13032 ft | 333 kts | 339° |
| 2026-04-21 08:10 | 39.04248 | 15.90739 | 13887 ft | 336 kts | 339° |
| 2026-04-21 08:10 | 39.06476 | 15.89771 | 14608 ft | 340 kts | 338° |
| 2026-04-21 08:11 | 39.08724 | 15.88783 | 15344 ft | 343 kts | 338° |
| 2026-04-21 08:11 | 39.10990 | 15.87780 | 16076 ft | 346 kts | 338° |
| 2026-04-21 08:11 | 39.13285 | 15.86759 | 16792 ft | 350 kts | 338° |
| 2026-04-21 08:11 | 39.15565 | 15.85743 | 17499 ft | 354 kts | 337° |
| 2026-04-21 08:12 | 39.17933 | 15.84686 | 18233 ft | 357 kts | 337° |
| 2026-04-21 08:12 | 39.20288 | 15.83636 | 18831 ft | 359 kts | 337° |
| 2026-04-21 08:12 | 39.22658 | 15.82577 | 19376 ft | 362 kts | 337° |
| 2026-04-21 08:12 | 39.25049 | 15.81509 | 19918 ft | 365 kts | 337° |
| 2026-04-21 08:13 | 39.27385 | 15.80242 | 20448 ft | 364 kts | 328° |
| 2026-04-21 08:13 | 39.29514 | 15.78519 | 20993 ft | 362 kts | 319° |
| 2026-04-21 08:13 | 39.31455 | 15.76440 | 21538 ft | 363 kts | 316° |
| 2026-04-21 08:13 | 39.33373 | 15.74307 | 22063 ft | 365 kts | 316° |
| 2026-04-21 08:14 | 39.35297 | 15.72150 | 22580 ft | 367 kts | 316° |
| 2026-04-21 08:14 | 39.36580 | 15.70715 | 22928 ft | 369 kts | 316° |
| 2026-04-21 08:14 | 39.38526 | 15.68545 | 23414 ft | 371 kts | 316° |
| 2026-04-21 08:14 | 39.40497 | 15.66356 | 23863 ft | 374 kts | 316° |
| 2026-04-21 08:15 | 39.42479 | 15.64159 | 24255 ft | 376 kts | 316° |
| 2026-04-21 08:15 | 39.44472 | 15.61954 | 24653 ft | 379 kts | 316° |
| 2026-04-21 08:15 | 39.46478 | 15.59735 | 25040 ft | 381 kts | 316° |
| 2026-04-21 08:15 | 39.48503 | 15.57495 | 25437 ft | 383 kts | 316° |
| 2026-04-21 08:16 | 39.50553 | 15.55225 | 25811 ft | 385 kts | 316° |
| 2026-04-21 08:16 | 39.52603 | 15.52953 | 26181 ft | 387 kts | 316° |
| 2026-04-21 08:16 | 39.54648 | 15.50685 | 26554 ft | 389 kts | 316° |
| 2026-04-21 08:16 | 39.56711 | 15.48395 | 26918 ft | 391 kts | 316° |
| 2026-04-21 08:17 | 39.58787 | 15.46089 | 27277 ft | 394 kts | 316° |
| 2026-04-21 08:17 | 39.60868 | 15.43774 | 27618 ft | 396 kts | 316° |
| 2026-04-21 08:17 | 39.62963 | 15.41444 | 27961 ft | 398 kts | 316° |
| 2026-04-21 08:17 | 39.65067 | 15.39100 | 28311 ft | 399 kts | 316° |
| 2026-04-21 08:18 | 39.67178 | 15.36748 | 28629 ft | 401 kts | 316° |
| 2026-04-21 08:18 | 39.69304 | 15.34376 | 28938 ft | 404 kts | 316° |
| 2026-04-21 08:18 | 39.71338 | 15.31863 | 29243 ft | 403 kts | 309° |
| 2026-04-21 08:18 | 39.73056 | 15.28998 | 29552 ft | 402 kts | 302° |
| 2026-04-21 08:19 | 39.74631 | 15.25989 | 29843 ft | 404 kts | 302° |
| 2026-04-21 08:19 | 39.76203 | 15.22950 | 30107 ft | 406 kts | 302° |
| 2026-04-21 08:19 | 39.77783 | 15.19892 | 30356 ft | 408 kts | 302° |
| 2026-04-21 08:19 | 39.79366 | 15.16836 | 30650 ft | 408 kts | 302° |
| 2026-04-21 08:20 | 39.80975 | 15.13741 | 31025 ft | 406 kts | 302° |
| 2026-04-21 08:20 | 39.82552 | 15.10714 | 31450 ft | 403 kts | 302° |
| 2026-04-21 08:20 | 39.84123 | 15.07704 | 31825 ft | 401 kts | 302° |
| 2026-04-21 08:20 | 39.85688 | 15.04704 | 32150 ft | 401 kts | 302° |
| 2026-04-21 08:21 | 39.87252 | 15.01705 | 32482 ft | 400 kts | 302° |
| 2026-04-21 08:21 | 39.88810 | 14.98715 | 32861 ft | 398 kts | 302° |
| 2026-04-21 08:21 | 39.90356 | 14.95748 | 33236 ft | 396 kts | 302° |
| 2026-04-21 08:21 | 39.91899 | 14.92781 | 33569 ft | 395 kts | 302° |
| 2026-04-21 08:22 | 39.93438 | 14.89819 | 33926 ft | 394 kts | 302° |
| 2026-04-21 08:22 | 39.94974 | 14.86860 | 34213 ft | 393 kts | 302° |
| 2026-04-21 08:22 | 39.96500 | 14.83918 | 34464 ft | 392 kts | 302° |
| 2026-04-21 08:22 | 39.98051 | 14.80924 | 34718 ft | 392 kts | 302° |
| 2026-04-21 08:23 | 39.99556 | 14.78018 | 34977 ft | 392 kts | 302° |
| 2026-04-21 08:23 | 40.01101 | 14.75031 | 35211 ft | 392 kts | 302° |
| 2026-04-21 08:23 | 40.02624 | 14.72083 | 35404 ft | 393 kts | 302° |
| 2026-04-21 08:23 | 40.04154 | 14.69119 | 35630 ft | 393 kts | 302° |
| 2026-04-21 08:24 | 40.05680 | 14.66160 | 35903 ft | 392 kts | 302° |
| 2026-04-21 08:24 | 40.08746 | 14.60205 | 36013 ft | 400 kts | 302° |
| 2026-04-21 08:25 | 40.11878 | 14.54110 | 36008 ft | 408 kts | 302° |
| 2026-04-21 08:25 | 40.15041 | 14.47947 | 35993 ft | 407 kts | 302° |
| 2026-04-21 08:26 | 40.18188 | 14.41802 | 35993 ft | 406 kts | 302° |
| 2026-04-21 08:26 | 40.21319 | 14.35676 | 36000 ft | 404 kts | 302° |
| 2026-04-21 08:27 | 40.24432 | 14.29572 | 36003 ft | 403 kts | 302° |
| 2026-04-21 08:27 | 40.27561 | 14.23426 | 35989 ft | 402 kts | 302° |
| 2026-04-21 08:28 | 40.30658 | 14.17329 | 36002 ft | 402 kts | 302° |
| 2026-04-21 08:28 | 40.33752 | 14.11228 | 36003 ft | 402 kts | 302° |
| 2026-04-21 08:29 | 40.36845 | 14.05114 | 35988 ft | 403 kts | 302° |
| 2026-04-21 08:29 | 40.39939 | 13.98989 | 35998 ft | 403 kts | 302° |
| 2026-04-21 08:30 | 40.43036 | 13.92844 | 35994 ft | 404 kts | 302° |
| 2026-04-21 08:30 | 40.46163 | 13.86628 | 35993 ft | 405 kts | 302° |
| 2026-04-21 08:31 | 40.49270 | 13.80439 | 35982 ft | 406 kts | 302° |
| 2026-04-21 08:31 | 40.52381 | 13.74232 | 35992 ft | 407 kts | 302° |
| 2026-04-21 08:32 | 40.55489 | 13.68016 | 35984 ft | 408 kts | 302° |
| 2026-04-21 08:32 | 40.58622 | 13.61737 | 35986 ft | 408 kts | 302° |
| 2026-04-21 08:33 | 40.61735 | 13.55488 | 35982 ft | 408 kts | 302° |
| 2026-04-21 08:33 | 40.64842 | 13.49238 | 35993 ft | 408 kts | 302° |
| 2026-04-21 08:34 | 40.67943 | 13.42986 | 35993 ft | 408 kts | 302° |
| 2026-04-21 08:34 | 40.71041 | 13.36728 | 35981 ft | 407 kts | 302° |
| 2026-04-21 08:35 | 40.74128 | 13.30480 | 35980 ft | 407 kts | 302° |
| 2026-04-21 08:35 | 40.77211 | 13.24225 | 35984 ft | 406 kts | 302° |
| 2026-04-21 08:36 | 40.80291 | 13.17967 | 36000 ft | 406 kts | 302° |
| 2026-04-21 08:36 | 40.83359 | 13.11718 | 35981 ft | 406 kts | 302° |
| 2026-04-21 08:37 | 40.86421 | 13.05469 | 35982 ft | 405 kts | 302° |
| 2026-04-21 08:37 | 40.89498 | 12.99180 | 35982 ft | 405 kts | 302° |
| 2026-04-21 08:38 | 40.92909 | 12.93260 | 35986 ft | 407 kts | 312° |
| 2026-04-21 08:38 | 40.96881 | 12.87938 | 35984 ft | 407 kts | 312° |
| 2026-04-21 08:39 | 41.00864 | 12.82612 | 35979 ft | 407 kts | 312° |
| 2026-04-21 08:39 | 41.04828 | 12.77265 | 35979 ft | 407 kts | 312° |
| 2026-04-21 08:40 | 41.08786 | 12.71896 | 35975 ft | 407 kts | 312° |
| 2026-04-21 08:40 | 41.12738 | 12.66517 | 35973 ft | 407 kts | 312° |
| 2026-04-21 08:41 | 41.16711 | 12.61100 | 35972 ft | 407 kts | 312° |
| 2026-04-21 08:41 | 41.19993 | 12.56617 | 35970 ft | 407 kts | 312° |
| 2026-04-21 08:42 | 41.23931 | 12.51230 | 35969 ft | 407 kts | 311° |
| 2026-04-21 08:42 | 41.27898 | 12.45793 | 35965 ft | 406 kts | 311° |
| 2026-04-21 08:43 | 41.31824 | 12.40402 | 35962 ft | 406 kts | 311° |
| 2026-04-21 08:43 | 41.35725 | 12.35035 | 35960 ft | 405 kts | 311° |
| 2026-04-21 08:44 | 41.39664 | 12.29606 | 35964 ft | 405 kts | 311° |
| 2026-04-21 08:44 | 41.43574 | 12.24207 | 35958 ft | 405 kts | 311° |
| 2026-04-21 08:45 | 41.47476 | 12.18809 | 35958 ft | 404 kts | 311° |
| 2026-04-21 08:45 | 41.51378 | 12.13403 | 35958 ft | 404 kts | 311° |
| 2026-04-21 08:46 | 41.55271 | 12.07997 | 35957 ft | 404 kts | 311° |
| 2026-04-21 08:46 | 41.59186 | 12.02550 | 35957 ft | 404 kts | 311° |
| 2026-04-21 08:47 | 41.63076 | 11.97130 | 35955 ft | 404 kts | 311° |
| 2026-04-21 08:47 | 41.66967 | 11.91697 | 35955 ft | 404 kts | 311° |
| 2026-04-21 08:48 | 41.70852 | 11.86262 | 35955 ft | 405 kts | 311° |
| 2026-04-21 08:48 | 41.74744 | 11.80808 | 35969 ft | 405 kts | 311° |
| 2026-04-21 08:49 | 41.78604 | 11.75390 | 35952 ft | 399 kts | 311° |
| 2026-04-21 08:49 | 41.82419 | 11.70024 | 35956 ft | 396 kts | 311° |
| 2026-04-21 08:50 | 41.86213 | 11.64676 | 35948 ft | 395 kts | 311° |
| 2026-04-21 08:50 | 41.90026 | 11.59291 | 35949 ft | 395 kts | 311° |
| 2026-04-21 08:51 | 41.93807 | 11.53944 | 35952 ft | 395 kts | 311° |
| 2026-04-21 08:51 | 41.97585 | 11.48589 | 35947 ft | 395 kts | 311° |
| 2026-04-21 08:52 | 42.01364 | 11.43223 | 35949 ft | 396 kts | 311° |
| 2026-04-21 08:52 | 42.05149 | 11.37839 | 35945 ft | 397 kts | 311° |
| 2026-04-21 08:53 | 42.08943 | 11.32433 | 35831 ft | 400 kts | 311° |
| 2026-04-21 08:53 | 42.10866 | 11.29687 | 35324 ft | 403 kts | 311° |
| 2026-04-21 08:53 | 42.12783 | 11.26949 | 34717 ft | 402 kts | 311° |
| 2026-04-21 08:53 | 42.14699 | 11.24210 | 34110 ft | 401 kts | 311° |
| 2026-04-21 08:54 | 42.16609 | 11.21478 | 33388 ft | 401 kts | 311° |
| 2026-04-21 08:54 | 42.18526 | 11.18732 | 32704 ft | 401 kts | 311° |
| 2026-04-21 08:54 | 42.20428 | 11.16005 | 32153 ft | 397 kts | 311° |
| 2026-04-21 08:54 | 42.22336 | 11.13267 | 31639 ft | 393 kts | 311° |
| 2026-04-21 08:55 | 42.24198 | 11.10593 | 31155 ft | 389 kts | 311° |
| 2026-04-21 08:55 | 42.26015 | 11.07980 | 30694 ft | 385 kts | 311° |
| 2026-04-21 08:55 | 42.27864 | 11.05319 | 30225 ft | 382 kts | 311° |
| 2026-04-21 08:55 | 42.29669 | 11.02718 | 29718 ft | 378 kts | 311° |
| 2026-04-21 08:56 | 42.31457 | 11.00140 | 29240 ft | 373 kts | 311° |
| 2026-04-21 08:56 | 42.33217 | 10.97601 | 28770 ft | 369 kts | 311° |
| 2026-04-21 08:56 | 42.34959 | 10.95085 | 28312 ft | 364 kts | 311° |
| 2026-04-21 08:56 | 42.36679 | 10.92599 | 27853 ft | 360 kts | 311° |
| 2026-04-21 08:57 | 42.38381 | 10.90140 | 27378 ft | 356 kts | 311° |
| 2026-04-21 08:57 | 42.40065 | 10.87707 | 26940 ft | 353 kts | 311° |
| 2026-04-21 08:57 | 42.41738 | 10.85289 | 26490 ft | 350 kts | 311° |
| 2026-04-21 08:57 | 42.43393 | 10.82894 | 26041 ft | 347 kts | 311° |
| 2026-04-21 08:58 | 42.45029 | 10.80524 | 25607 ft | 344 kts | 311° |
| 2026-04-21 08:58 | 42.46682 | 10.78128 | 25174 ft | 342 kts | 311° |
| 2026-04-21 08:58 | 42.48306 | 10.75771 | 24760 ft | 344 kts | 311° |
| 2026-04-21 08:58 | 42.49950 | 10.73382 | 24368 ft | 350 kts | 311° |
| 2026-04-21 08:59 | 42.51619 | 10.70955 | 23998 ft | 354 kts | 311° |
| 2026-04-21 08:59 | 42.53294 | 10.68515 | 23641 ft | 354 kts | 311° |
| 2026-04-21 08:59 | 42.54965 | 10.66082 | 23238 ft | 351 kts | 311° |
| 2026-04-21 08:59 | 42.56622 | 10.63669 | 22819 ft | 348 kts | 311° |
| 2026-04-21 09:00 | 42.58268 | 10.61267 | 22417 ft | 346 kts | 311° |
| 2026-04-21 09:00 | 42.59903 | 10.58879 | 22025 ft | 344 kts | 311° |
| 2026-04-21 09:00 | 42.61528 | 10.56503 | 21649 ft | 343 kts | 311° |
| 2026-04-21 09:00 | 42.63145 | 10.54137 | 21254 ft | 341 kts | 311° |
| 2026-04-21 09:01 | 42.64758 | 10.51774 | 20886 ft | 340 kts | 311° |
| 2026-04-21 09:01 | 42.66362 | 10.49425 | 20523 ft | 339 kts | 311° |
| 2026-04-21 09:01 | 42.67958 | 10.47084 | 20170 ft | 337 kts | 311° |
| 2026-04-21 09:01 | 42.69550 | 10.44749 | 19820 ft | 336 kts | 311° |
| 2026-04-21 09:02 | 42.71156 | 10.42447 | 19469 ft | 336 kts | 315° |
| 2026-04-21 09:02 | 42.73092 | 10.40637 | 19116 ft | 340 kts | 328° |
| 2026-04-21 09:02 | 42.75279 | 10.39385 | 18797 ft | 344 kts | 339° |
| 2026-04-21 09:03 | 42.80093 | 10.38486 | 18151 ft | 347 kts | 349° |
| 2026-04-21 09:03 | 42.82463 | 10.38201 | 17822 ft | 346 kts | 350° |
| 2026-04-21 09:03 | 42.84863 | 10.37910 | 17475 ft | 345 kts | 350° |
| 2026-04-21 09:03 | 42.87248 | 10.37610 | 17121 ft | 344 kts | 349° |
| 2026-04-21 09:04 | 42.89628 | 10.37301 | 16779 ft | 343 kts | 349° |
| 2026-04-21 09:04 | 42.92027 | 10.36981 | 16436 ft | 342 kts | 349° |
| 2026-04-21 09:04 | 42.94388 | 10.36662 | 16099 ft | 341 kts | 349° |
| 2026-04-21 09:04 | 42.96740 | 10.36341 | 15775 ft | 340 kts | 349° |
| 2026-04-21 09:05 | 42.99090 | 10.36019 | 15449 ft | 338 kts | 349° |
| 2026-04-21 09:05 | 43.01427 | 10.35698 | 15132 ft | 337 kts | 349° |
| 2026-04-21 09:05 | 43.03764 | 10.35377 | 14821 ft | 336 kts | 350° |
| 2026-04-21 09:05 | 43.06090 | 10.35057 | 14510 ft | 335 kts | 350° |
| 2026-04-21 09:06 | 43.08404 | 10.34739 | 14212 ft | 334 kts | 350° |
| 2026-04-21 09:06 | 43.10715 | 10.34420 | 13914 ft | 333 kts | 350° |
| 2026-04-21 09:06 | 43.13020 | 10.34103 | 13612 ft | 333 kts | 350° |
| 2026-04-21 09:06 | 43.15294 | 10.33789 | 13286 ft | 332 kts | 350° |
| 2026-04-21 09:07 | 43.17584 | 10.33473 | 12966 ft | 331 kts | 350° |
| 2026-04-21 09:07 | 43.19872 | 10.33157 | 12647 ft | 330 kts | 350° |
| 2026-04-21 09:07 | 43.22154 | 10.32841 | 12333 ft | 328 kts | 351° |
| 2026-04-21 09:07 | 43.24433 | 10.32526 | 12004 ft | 322 kts | 351° |
| 2026-04-21 09:08 | 43.26658 | 10.32352 | 11679 ft | 321 kts | 2° |
| 2026-04-21 09:08 | 43.28813 | 10.33165 | 11337 ft | 324 kts | 24° |
| 2026-04-21 09:08 | 43.30691 | 10.34882 | 11029 ft | 323 kts | 34° |
| 2026-04-21 09:08 | 43.32443 | 10.36730 | 10941 ft | 312 kts | 34° |
| 2026-04-21 09:09 | 43.34126 | 10.38498 | 10929 ft | 298 kts | 34° |
| 2026-04-21 09:09 | 43.35754 | 10.40190 | 10756 ft | 292 kts | 33° |
| 2026-04-21 09:09 | 43.37405 | 10.41891 | 10374 ft | 294 kts | 34° |
| 2026-04-21 09:09 | 43.39023 | 10.43553 | 9992 ft | 295 kts | 34° |
| 2026-04-21 09:10 | 43.40672 | 10.45249 | 9607 ft | 289 kts | 34° |
| 2026-04-21 09:10 | 43.42268 | 10.46892 | 9213 ft | 283 kts | 34° |
| 2026-04-21 09:10 | 43.43830 | 10.48501 | 8800 ft | 279 kts | 34° |
| 2026-04-21 09:10 | 43.44855 | 10.49556 | 8529 ft | 276 kts | 34° |
| 2026-04-21 09:11 | 43.46392 | 10.51093 | 8118 ft | 271 kts | 28° |
| 2026-04-21 09:11 | 43.48146 | 10.51829 | 7703 ft | 262 kts | 359° |
| 2026-04-21 09:11 | 43.49900 | 10.51355 | 7312 ft | 256 kts | 334° |
| 2026-04-21 09:11 | 43.51357 | 10.49956 | 6923 ft | 252 kts | 313° |
| 2026-04-21 09:12 | 43.52442 | 10.48081 | 6545 ft | 250 kts | 308° |
| 2026-04-21 09:12 | 43.53427 | 10.46123 | 6127 ft | 248 kts | 296° |
| 2026-04-21 09:12 | 43.53778 | 10.43816 | 5709 ft | 249 kts | 267° |
| 2026-04-21 09:12 | 43.53283 | 10.41562 | 5378 ft | 246 kts | 239° |
| 2026-04-21 09:13 | 43.52169 | 10.39835 | 5131 ft | 239 kts | 220° |
| 2026-04-21 09:13 | 43.50865 | 10.38466 | 4875 ft | 233 kts | 217° |
| 2026-04-21 09:13 | 43.49566 | 10.37168 | 4624 ft | 228 kts | 217° |
| 2026-04-21 09:13 | 43.48281 | 10.35881 | 4381 ft | 228 kts | 217° |
| 2026-04-21 09:14 | 43.46985 | 10.34574 | 4112 ft | 228 kts | 217° |
| 2026-04-21 09:14 | 43.45703 | 10.33271 | 4081 ft | 232 kts | 217° |
| 2026-04-21 09:14 | 43.44402 | 10.31942 | 4060 ft | 232 kts | 217° |
| 2026-04-21 09:14 | 43.43127 | 10.30637 | 4037 ft | 231 kts | 217° |
| 2026-04-21 09:15 | 43.41845 | 10.29326 | 4010 ft | 227 kts | 218° |
| 2026-04-21 09:15 | 43.40593 | 10.28043 | 3995 ft | 223 kts | 218° |
| 2026-04-21 09:15 | 43.39346 | 10.26767 | 3999 ft | 224 kts | 218° |
| 2026-04-21 09:15 | 43.38095 | 10.25487 | 3994 ft | 225 kts | 218° |
| 2026-04-21 09:16 | 43.36878 | 10.24150 | 3993 ft | 224 kts | 230° |
| 2026-04-21 09:16 | 43.36248 | 10.22310 | 4002 ft | 208 kts | 264° |
| 2026-04-21 09:16 | 43.36410 | 10.20389 | 4003 ft | 202 kts | 291° |
| 2026-04-21 09:16 | 43.37112 | 10.18712 | 4014 ft | 205 kts | 305° |
| 2026-04-21 09:17 | 43.37974 | 10.17127 | 4025 ft | 209 kts | 308° |
| 2026-04-21 09:17 | 43.39128 | 10.15924 | 4006 ft | 212 kts | 341° |
| 2026-04-21 09:17 | 43.40613 | 10.15823 | 4027 ft | 214 kts | 8° |
| 2026-04-21 09:17 | 43.42055 | 10.16258 | 4018 ft | 216 kts | 12° |
| 2026-04-21 09:18 | 43.43537 | 10.16750 | 4014 ft | 217 kts | 13° |
| 2026-04-21 09:18 | 43.44996 | 10.17239 | 3984 ft | 215 kts | 13° |
| 2026-04-21 09:18 | 43.46432 | 10.17723 | 3822 ft | 208 kts | 12° |
| 2026-04-21 09:18 | 43.47744 | 10.18376 | 3637 ft | 195 kts | 30° |
| 2026-04-21 09:19 | 43.48856 | 10.19419 | 3561 ft | 194 kts | 34° |
| 2026-04-21 09:19 | 43.49968 | 10.20505 | 3533 ft | 197 kts | 34° |
| 2026-04-21 09:19 | 43.51069 | 10.21614 | 3499 ft | 195 kts | 35° |
| 2026-04-21 09:19 | 43.52147 | 10.22686 | 3496 ft | 186 kts | 34° |
| 2026-04-21 09:20 | 43.53159 | 10.23682 | 3435 ft | 172 kts | 34° |
| 2026-04-21 09:20 | 43.54113 | 10.24652 | 3233 ft | 170 kts | 35° |
| 2026-04-21 09:20 | 43.55060 | 10.25628 | 3024 ft | 170 kts | 36° |
| 2026-04-21 09:20 | 43.55999 | 10.26600 | 2802 ft | 168 kts | 36° |
| 2026-04-21 09:21 | 43.56920 | 10.27556 | 2591 ft | 164 kts | 36° |
| 2026-04-21 09:21 | 43.57823 | 10.28492 | 2357 ft | 160 kts | 37° |
| 2026-04-21 09:21 | 43.58704 | 10.29406 | 2140 ft | 157 kts | 37° |
| 2026-04-21 09:21 | 43.59564 | 10.30298 | 1921 ft | 153 kts | 37° |
| 2026-04-21 09:22 | 43.60401 | 10.31166 | 1724 ft | 149 kts | 37° |
| 2026-04-21 09:22 | 43.61233 | 10.32030 | 1525 ft | 151 kts | 37° |
| 2026-04-21 09:22 | 43.62069 | 10.32894 | 1325 ft | 149 kts | 37° |
| 2026-04-21 09:22 | 43.62897 | 10.33752 | 1135 ft | 149 kts | 37° |
| 2026-04-21 09:23 | 43.63703 | 10.34587 | 930 ft | 147 kts | 37° |
| 2026-04-21 09:23 | 43.64521 | 10.35435 | 745 ft | 147 kts | 38° |
| 2026-04-21 09:23 | 43.65341 | 10.36286 | 534 ft | 144 kts | 38° |
| 2026-04-21 09:23 | 43.66138 | 10.37116 | 356 ft | 145 kts | 38° |
| 2026-04-21 09:24 | 43.66940 | 10.37953 | 204 ft | 145 kts | 37° |
| 2026-04-21 09:24 | 43.67741 | 10.38765 | 17 ft | 136 kts | 37° |
| 2026-04-21 09:24 | 43.68382 | 10.39422 | 19 ft | 102 kts | 38° |
| 2026-04-21 09:24 | 43.68858 | 10.39918 | 19 ft | 66 kts | 37° |
| 2026-04-21 09:25 | 43.69131 | 10.40204 | 19 ft | 40 kts | 37° |
| 2026-04-21 09:25 | 43.69263 | 10.40290 | 19 ft | 13 kts | 333° |
| 2026-04-21 09:25 | 43.69326 | 10.40202 | 18 ft | 8 kts | 307° |
| 2026-04-21 09:25 | 43.69362 | 10.40139 | 22 ft | 9 kts | 311° |
| 2026-04-21 09:26 | 43.69435 | 10.40095 | 19 ft | 15 kts | 349° |
| 2026-04-21 09:26 | 43.69549 | 10.40071 | 15 ft | 17 kts | 352° |
| 2026-04-21 09:26 | 43.69654 | 10.40053 | 14 ft | 13 kts | 7° |
| 2026-04-21 09:26 | 43.69737 | 10.40087 | 14 ft | 10 kts | 7° |
| 2026-04-21 09:27 | 43.69756 | 10.40090 | 14 ft | 0 kts | 6° |